createdAt,value
2019-03-24T00:04:56.528Z,4.37
2019-03-24T00:10:01.731Z,4.70
2019-03-24T00:15:07.527Z,5.80
2019-03-24T00:20:12.486Z,3.83
2019-03-24T00:25:17.256Z,4.67
2019-03-24T00:30:22.077Z,3.10
2019-03-24T00:35:26.770Z,2.53
2019-03-24T00:40:31.676Z,10.27
2019-03-24T00:45:37.295Z,2.67
2019-03-24T00:50:42.388Z,4.00
2019-03-24T00:55:47.541Z,2.47
2019-03-24T01:00:52.643Z,3.07
2019-03-24T01:05:57.440Z,5.90
2019-03-24T01:11:02.075Z,13.87
2019-03-24T01:16:09.530Z,18.97
2019-03-24T01:21:14.295Z,44.07
2019-03-24T01:26:19.064Z,38.83
2019-03-24T01:31:23.892Z,44.40
2019-03-24T01:36:28.621Z,39.53
2019-03-24T01:41:33.453Z,8.97
2019-03-24T01:46:38.366Z,4.50
2019-03-24T01:51:43.271Z,4.17
2019-03-24T01:56:48.045Z,2.70
2019-03-24T02:01:52.849Z,2.17
2019-03-24T02:06:57.586Z,1.43
2019-03-24T02:12:02.541Z,1.30
2019-03-24T02:17:07.501Z,1.17
2019-03-24T02:22:12.221Z,1.47
2019-03-24T02:27:17.168Z,2.50
2019-03-24T02:32:21.923Z,1.40
2019-03-24T02:37:26.711Z,0.40
2019-03-24T02:42:31.393Z,0.50
2019-03-24T02:47:36.331Z,0.40
2019-03-24T02:52:41.186Z,1.23
2019-03-24T02:57:46.044Z,1.97
2019-03-24T03:02:50.881Z,1.70
2019-03-24T03:07:55.480Z,3.63
2019-03-24T03:13:00.261Z,4.57
2019-03-24T03:18:05.305Z,4.73
2019-03-24T03:23:10.130Z,5.10
2019-03-24T03:28:14.726Z,5.40
2019-03-24T03:33:19.546Z,5.60
2019-03-24T03:38:24.434Z,6.37
2019-03-24T03:43:29.095Z,5.00
2019-03-24T03:48:33.935Z,5.57
2019-03-24T03:53:38.680Z,5.03
2019-03-24T03:58:43.430Z,4.97
2019-03-24T04:03:48.021Z,4.50
2019-03-24T04:08:52.799Z,4.20
2019-03-24T04:13:57.550Z,5.00
2019-03-24T04:19:03.210Z,4.97
2019-03-24T04:24:07.845Z,5.63
2019-03-24T04:29:12.687Z,4.77
2019-03-24T04:34:17.248Z,4.73
2019-03-24T04:39:21.843Z,3.83
2019-03-24T04:44:26.613Z,5.07
2019-03-24T04:49:31.664Z,6.27
2019-03-24T04:54:36.508Z,7.43
2019-03-24T04:59:41.068Z,8.20
2019-03-24T05:04:45.744Z,7.77
2019-03-24T05:09:51.049Z,10.20
2019-03-24T05:14:55.785Z,8.80
2019-03-24T05:20:01.610Z,4.77
2019-03-24T05:25:07.379Z,7.30
2019-03-24T05:30:12.554Z,9.23
2019-03-24T05:35:17.425Z,8.60
2019-03-24T05:40:22.598Z,8.83
2019-03-24T05:45:27.294Z,11.77
2019-03-24T05:50:32.001Z,9.20
2019-03-24T05:55:36.794Z,7.73
2019-03-24T06:00:41.450Z,10.57
2019-03-24T06:05:46.284Z,11.23
2019-03-24T06:10:51.024Z,10.20
2019-03-24T06:15:55.739Z,9.70
2019-03-24T06:21:00.815Z,10.10
2019-03-24T06:26:05.667Z,8.77
2019-03-24T06:31:10.500Z,8.30
2019-03-24T06:36:15.644Z,10.03
2019-03-24T06:41:20.402Z,5.73
2019-03-24T06:46:25.449Z,5.70
2019-03-24T06:51:30.155Z,7.27
2019-03-24T06:56:34.977Z,10.37
2019-03-24T07:01:39.591Z,11.63
2019-03-24T07:06:44.742Z,14.73
2019-03-24T07:11:49.354Z,11.10
2019-03-24T07:16:54.004Z,12.33
2019-03-24T07:21:59.058Z,11.57
2019-03-24T07:27:03.809Z,10.23
2019-03-24T07:32:08.416Z,10.63
2019-03-24T07:37:13.459Z,9.27
2019-03-24T07:42:18.334Z,7.80
2019-03-24T07:47:23.095Z,8.27
2019-03-24T07:52:29.153Z,8.63
2019-03-24T07:57:34.220Z,6.93
2019-03-24T08:02:40.511Z,6.70
2019-03-24T08:07:47.159Z,5.63
2019-03-24T08:12:52.204Z,3.80
2019-03-24T08:17:57.150Z,5.17
2019-03-24T08:23:02.415Z,5.83
2019-03-24T08:28:07.205Z,4.13
2019-03-24T08:33:12.057Z,4.23
2019-03-24T08:38:17.042Z,4.63
2019-03-24T08:43:21.886Z,4.33
2019-03-24T08:48:26.644Z,4.10
2019-03-24T08:53:31.521Z,3.97
2019-03-24T08:58:36.349Z,3.40
2019-03-24T09:03:41.061Z,4.30
2019-03-24T09:08:46.115Z,5.17
2019-03-24T09:13:50.866Z,4.00
2019-03-24T09:18:55.592Z,3.30
2019-03-24T09:24:00.374Z,4.27
2019-03-24T09:29:05.279Z,4.00
2019-03-24T09:34:10.391Z,3.20
2019-03-24T09:39:15.285Z,3.40
2019-03-24T09:44:20.297Z,2.90
2019-03-24T09:49:25.466Z,3.10
2019-03-24T09:54:30.228Z,2.53
2019-03-24T09:59:35.069Z,2.13
2019-03-24T10:04:39.735Z,2.50
2019-03-24T10:09:44.555Z,2.33
2019-03-24T10:14:49.187Z,2.47
2019-03-24T10:19:54.024Z,2.50
2019-03-24T10:24:58.862Z,2.10
2019-03-24T10:30:03.937Z,2.70
2019-03-24T10:35:11.234Z,2.23
2019-03-24T10:40:16.184Z,2.33
2019-03-24T10:45:21.155Z,2.70
2019-03-24T10:50:26.079Z,2.70
2019-03-24T10:55:31.682Z,1.53
2019-03-24T11:00:39.742Z,2.27
2019-03-24T11:05:44.469Z,2.77
2019-03-24T11:10:49.191Z,1.70
2019-03-24T11:15:54.357Z,2.70
2019-03-24T11:20:59.146Z,2.30
2019-03-24T11:26:04.844Z,2.13
2019-03-24T11:31:09.706Z,2.33
2019-03-24T11:36:14.541Z,2.90
2019-03-24T11:41:19.439Z,2.80
2019-03-24T11:46:24.185Z,3.10
2019-03-24T11:51:28.924Z,3.10
2019-03-24T11:56:34.559Z,3.27
2019-03-24T12:01:39.596Z,2.60
2019-03-24T12:06:44.699Z,2.90
2019-03-24T12:11:49.695Z,3.23
2019-03-24T12:16:54.370Z,2.67
2019-03-24T12:21:59.281Z,3.00
2019-03-24T12:27:04.233Z,3.17
2019-03-24T12:32:08.999Z,2.90
2019-03-24T12:37:16.622Z,3.53
2019-03-24T12:42:21.410Z,3.77
2019-03-24T12:47:29.637Z,4.17
2019-03-24T12:52:34.332Z,4.73
2019-03-24T12:57:39.068Z,4.73
2019-03-24T13:02:43.781Z,4.73
2019-03-24T13:07:48.414Z,5.27
2019-03-24T13:12:52.970Z,4.67
2019-03-24T13:17:57.635Z,3.97
2019-03-24T13:23:03.940Z,4.03
2019-03-24T13:28:08.744Z,4.20
2019-03-24T13:33:13.911Z,4.20
2019-03-24T13:38:18.681Z,3.80
2019-03-24T13:43:23.436Z,3.97
2019-03-24T13:48:28.206Z,3.90
2019-03-24T13:53:33.094Z,3.53
2019-03-24T13:58:38.230Z,3.47
2019-03-24T14:03:44.785Z,3.93
2019-03-24T14:08:49.455Z,3.47
2019-03-24T14:13:54.305Z,2.93
2019-03-24T14:18:59.097Z,3.53
2019-03-24T14:24:04.240Z,3.63
2019-03-24T14:29:09.229Z,2.70
2019-03-24T14:34:14.450Z,2.40
2019-03-24T14:39:19.754Z,2.80
2019-03-24T14:44:25.006Z,2.90
2019-03-24T14:49:29.717Z,2.37
2019-03-24T14:54:34.595Z,2.23
2019-03-24T14:59:39.334Z,2.57
2019-03-24T15:04:44.097Z,2.07
2019-03-24T15:09:48.770Z,2.20
2019-03-24T15:14:53.405Z,2.10
2019-03-24T15:19:58.209Z,1.70
2019-03-24T15:25:03.057Z,2.00
2019-03-24T15:30:09.113Z,3.40
2019-03-24T15:35:14.221Z,1.87
2019-03-24T15:40:19.425Z,2.40
2019-03-24T15:45:25.771Z,2.03
2019-03-24T15:50:30.654Z,2.10
2019-03-24T15:55:35.755Z,2.10
2019-03-24T16:00:43.500Z,2.50
2019-03-24T16:05:48.459Z,1.50
2019-03-24T16:10:53.512Z,1.63
2019-03-24T16:15:58.764Z,2.17
2019-03-24T16:21:03.732Z,1.40
2019-03-24T16:26:09.575Z,1.90
2019-03-24T16:31:14.720Z,1.37
2019-03-24T16:36:19.961Z,1.60
2019-03-24T16:41:26.566Z,1.23
2019-03-24T16:46:31.469Z,1.40
2019-03-24T16:51:38.731Z,1.40
2019-03-24T16:56:42.878Z,1.43
2019-03-24T17:01:47.689Z,1.67
2019-03-24T17:06:52.435Z,1.40
2019-03-24T17:11:57.469Z,1.50
2019-03-24T17:17:02.224Z,1.77
2019-03-24T17:22:07.375Z,1.23
2019-03-24T17:27:12.209Z,1.37
2019-03-24T17:32:17.630Z,1.20
2019-03-24T17:37:25.394Z,2.00
2019-03-24T17:42:29.980Z,0.87
2019-03-24T17:47:34.879Z,1.60
2019-03-24T17:52:42.509Z,1.47
2019-03-24T17:57:47.221Z,1.03
2019-03-24T18:02:51.863Z,1.20
2019-03-24T18:07:56.557Z,2.40
2019-03-24T18:13:01.973Z,1.20
2019-03-24T18:18:07.034Z,1.20
2019-03-24T18:23:11.984Z,1.30
2019-03-24T18:28:16.599Z,1.43
2019-03-24T18:33:22.270Z,1.20
2019-03-24T18:38:27.099Z,1.53
2019-03-24T18:43:31.910Z,1.47
2019-03-24T18:48:37.050Z,1.63
2019-03-24T18:53:41.850Z,1.20
2019-03-24T18:58:46.655Z,1.10
2019-03-24T19:03:51.440Z,1.00
2019-03-24T19:08:57.514Z,1.50
2019-03-24T19:14:02.613Z,1.60
2019-03-24T19:19:07.504Z,1.23
2019-03-24T19:24:12.778Z,1.80
2019-03-24T19:29:17.575Z,4.77
2019-03-24T19:34:23.162Z,1.90
2019-03-24T19:39:28.518Z,2.43
2019-03-24T19:44:35.549Z,1.30
2019-03-24T19:49:40.360Z,5.53
2019-03-24T19:54:45.022Z,26.53
2019-03-24T19:59:49.739Z,2.50
2019-03-24T20:04:54.583Z,2.90
2019-03-24T20:09:59.489Z,1.47
2019-03-24T20:15:04.940Z,0.70
2019-03-24T20:20:09.838Z,1.63
2019-03-24T20:25:14.573Z,1.10
2019-03-24T20:30:19.426Z,0.93
2019-03-24T20:35:25.169Z,1.37
2019-03-24T20:40:31.246Z,1.40
2019-03-24T20:45:35.902Z,1.10
2019-03-24T20:50:41.266Z,1.27
2019-03-24T20:55:46.285Z,3.23
2019-03-24T21:00:51.326Z,2.40
2019-03-24T21:05:56.101Z,2.80
2019-03-24T21:11:00.731Z,1.33
2019-03-24T21:16:05.751Z,1.30
2019-03-24T21:21:10.681Z,1.20
2019-03-24T21:26:15.537Z,1.50
2019-03-24T21:31:20.526Z,1.40
2019-03-24T21:36:26.286Z,1.50
2019-03-24T21:41:31.032Z,1.10
2019-03-24T21:46:35.776Z,1.87
2019-03-24T21:51:40.445Z,1.50
2019-03-24T21:56:45.227Z,1.30
2019-03-24T22:01:50.282Z,1.13
2019-03-24T22:06:54.946Z,1.87
2019-03-24T22:11:59.749Z,1.07
2019-03-24T22:17:04.425Z,1.67
2019-03-24T22:22:09.386Z,1.40
2019-03-24T22:27:14.189Z,1.73
2019-03-24T22:32:18.895Z,1.40
2019-03-24T22:37:24.675Z,1.43
2019-03-24T22:42:29.377Z,2.33
2019-03-24T22:47:34.094Z,1.40
2019-03-24T22:52:38.858Z,1.87
2019-03-24T22:57:43.628Z,1.40
2019-03-24T23:02:48.350Z,2.27
2019-03-24T23:07:53.091Z,2.30
2019-03-24T23:12:57.844Z,1.77
2019-03-24T23:18:02.845Z,2.60
2019-03-24T23:23:07.717Z,2.20
2019-03-24T23:28:12.521Z,1.70
2019-03-24T23:33:17.511Z,2.20
2019-03-24T23:38:23.593Z,1.90
2019-03-24T23:43:28.326Z,2.03
2019-03-24T23:48:33.073Z,2.07
2019-03-24T23:53:37.861Z,2.77
2019-03-24T23:58:42.703Z,2.97
